sensor_id;sensor_type;location;lat;lon;timestamp;P1;durP1;ratioP1;P2;durP2;ratioP2
5967;SDS011;3010;51.028;4.170;2022-09-03T00:00:28;2.80;;;2.35;;
5967;SDS011;3010;51.028;4.170;2022-09-03T00:03:11;4.17;;;2.33;;
5967;SDS011;3010;51.028;4.170;2022-09-03T00:08:36;2.30;;;2.30;;
5967;SDS011;3010;51.028;4.170;2022-09-03T00:11:11;2.60;;;2.40;;
5967;SDS011;3010;51.028;4.170;2022-09-03T00:13:46;2.67;;;2.57;;
5967;SDS011;3010;51.028;4.170;2022-09-03T00:16:11;2.57;;;2.37;;
5967;SDS011;3010;51.028;4.170;2022-09-03T00:18:42;2.97;;;2.47;;
5967;SDS011;3010;51.028;4.170;2022-09-03T00:21:08;2.67;;;2.43;;
5967;SDS011;3010;51.028;4.170;2022-09-03T00:23:34;2.47;;;2.37;;
5967;SDS011;3010;51.028;4.170;2022-09-03T00:28:45;5.70;;;2.30;;
5967;SDS011;3010;51.028;4.170;2022-09-03T00:31:15;2.90;;;2.63;;
5967;SDS011;3010;51.028;4.170;2022-09-03T00:33:43;2.53;;;2.15;;
5967;SDS011;3010;51.028;4.170;2022-09-03T00:36:14;2.70;;;2.50;;
5967;SDS011;3010;51.028;4.170;2022-09-03T00:38:48;3.63;;;2.80;;
5967;SDS011;3010;51.028;4.170;2022-09-03T00:41:24;2.67;;;2.60;;
5967;SDS011;3010;51.028;4.170;2022-09-03T00:44:53;2.80;;;2.60;;
5967;SDS011;3010;51.028;4.170;2022-09-03T00:46:25;2.50;;;2.37;;
5967;SDS011;3010;51.028;4.170;2022-09-03T00:49:12;5.30;;;2.50;;
5967;SDS011;3010;51.028;4.170;2022-09-03T00:52:40;2.53;;;2.33;;
5967;SDS011;3010;51.028;4.170;2022-09-03T00:57:26;2.97;;;2.73;;
5967;SDS011;3010;51.028;4.170;2022-09-03T01:00:13;3.63;;;2.63;;
5967;SDS011;3010;51.028;4.170;2022-09-03T01:05:33;2.60;;;2.50;;
5967;SDS011;3010;51.028;4.170;2022-09-03T01:08:11;2.87;;;2.73;;
5967;SDS011;3010;51.028;4.170;2022-09-03T01:13:21;2.70;;;2.60;;
5967;SDS011;3010;51.028;4.170;2022-09-03T01:16:01;3.00;;;2.80;;
5967;SDS011;3010;51.028;4.170;2022-09-03T01:18:24;2.80;;;2.50;;
5967;SDS011;3010;51.028;4.170;2022-09-03T01:29:27;2.90;;;2.70;;
5967;SDS011;3010;51.028;4.170;2022-09-03T01:32:00;2.97;;;2.77;;
5967;SDS011;3010;51.028;4.170;2022-09-03T01:37:13;2.93;;;2.70;;
5967;SDS011;3010;51.028;4.170;2022-09-03T01:42:16;3.43;;;2.80;;
5967;SDS011;3010;51.028;4.170;2022-09-03T01:50:31;3.47;;;2.80;;
5967;SDS011;3010;51.028;4.170;2022-09-03T02:01:05;2.93;;;2.67;;
5967;SDS011;3010;51.028;4.170;2022-09-03T02:03:32;3.45;;;2.62;;
5967;SDS011;3010;51.028;4.170;2022-09-03T02:05:59;4.77;;;2.90;;
5967;SDS011;3010;51.028;4.170;2022-09-03T02:08:25;2.72;;;2.60;;
5967;SDS011;3010;51.028;4.170;2022-09-03T02:10:52;2.90;;;2.77;;
5967;SDS011;3010;51.028;4.170;2022-09-03T02:13:25;2.50;;;2.40;;
5967;SDS011;3010;51.028;4.170;2022-09-03T02:15:54;4.20;;;2.63;;
5967;SDS011;3010;51.028;4.170;2022-09-03T02:18:23;2.90;;;2.70;;
5967;SDS011;3010;51.028;4.170;2022-09-03T02:20:49;3.13;;;2.80;;
5967;SDS011;3010;51.028;4.170;2022-09-03T02:23:15;6.17;;;3.00;;
5967;SDS011;3010;51.028;4.170;2022-09-03T02:25:43;2.93;;;2.73;;
5967;SDS011;3010;51.028;4.170;2022-09-03T02:28:11;5.77;;;3.00;;
5967;SDS011;3010;51.028;4.170;2022-09-03T02:30:38;4.90;;;2.80;;
5967;SDS011;3010;51.028;4.170;2022-09-03T02:33:05;2.83;;;2.70;;
5967;SDS011;3010;51.028;4.170;2022-09-03T02:35:31;3.42;;;2.78;;
5967;SDS011;3010;51.028;4.170;2022-09-03T02:38:07;3.13;;;2.63;;
5967;SDS011;3010;51.028;4.170;2022-09-03T02:40:24;2.63;;;2.53;;
5967;SDS011;3010;51.028;4.170;2022-09-03T02:42:51;3.30;;;2.60;;
5967;SDS011;3010;51.028;4.170;2022-09-03T02:47:48;2.73;;;2.63;;
5967;SDS011;3010;51.028;4.170;2022-09-03T02:50:13;3.33;;;2.90;;
5967;SDS011;3010;51.028;4.170;2022-09-03T02:52:40;2.70;;;2.60;;
5967;SDS011;3010;51.028;4.170;2022-09-03T02:55:06;3.13;;;2.83;;
5967;SDS011;3010;51.028;4.170;2022-09-03T02:57:33;3.00;;;2.80;;
5967;SDS011;3010;51.028;4.170;2022-09-03T03:00:00;3.00;;;2.70;;
5967;SDS011;3010;51.028;4.170;2022-09-03T03:02:26;2.97;;;2.77;;
5967;SDS011;3010;51.028;4.170;2022-09-03T03:04:53;3.07;;;2.90;;
5967;SDS011;3010;51.028;4.170;2022-09-03T03:07:20;3.40;;;3.00;;
5967;SDS011;3010;51.028;4.170;2022-09-03T03:09:46;3.57;;;3.00;;
5967;SDS011;3010;51.028;4.170;2022-09-03T03:12:13;3.40;;;3.10;;
5967;SDS011;3010;51.028;4.170;2022-09-03T03:14:39;3.25;;;3.12;;
5967;SDS011;3010;51.028;4.170;2022-09-03T03:17:06;3.50;;;3.20;;
5967;SDS011;3010;51.028;4.170;2022-09-03T03:19:32;3.20;;;3.00;;
5967;SDS011;3010;51.028;4.170;2022-09-03T03:21:59;3.27;;;2.97;;
5967;SDS011;3010;51.028;4.170;2022-09-03T03:24:25;3.23;;;3.00;;
5967;SDS011;3010;51.028;4.170;2022-09-03T03:26:55;3.30;;;3.07;;
5967;SDS011;3010;51.028;4.170;2022-09-03T03:29:25;2.97;;;2.80;;
5967;SDS011;3010;51.028;4.170;2022-09-03T03:31:51;3.63;;;3.33;;
5967;SDS011;3010;51.028;4.170;2022-09-03T03:34:18;3.20;;;2.93;;
5967;SDS011;3010;51.028;4.170;2022-09-03T03:36:44;2.97;;;2.87;;
5967;SDS011;3010;51.028;4.170;2022-09-03T03:39:11;3.53;;;3.27;;
5967;SDS011;3010;51.028;4.170;2022-09-03T03:41:38;3.20;;;3.07;;
5967;SDS011;3010;51.028;4.170;2022-09-03T03:44:05;4.13;;;3.10;;
5967;SDS011;3010;51.028;4.170;2022-09-03T03:46:38;4.90;;;3.10;;
5967;SDS011;3010;51.028;4.170;2022-09-03T03:49:04;3.30;;;3.20;;
5967;SDS011;3010;51.028;4.170;2022-09-03T03:51:30;3.80;;;3.00;;
5967;SDS011;3010;51.028;4.170;2022-09-03T03:53:57;3.00;;;2.90;;
5967;SDS011;3010;51.028;4.170;2022-09-03T03:56:23;3.30;;;3.00;;
5967;SDS011;3010;51.028;4.170;2022-09-03T03:58:50;3.93;;;3.10;;
5967;SDS011;3010;51.028;4.170;2022-09-03T04:01:17;3.23;;;3.07;;
5967;SDS011;3010;51.028;4.170;2022-09-03T04:03:43;3.08;;;2.87;;
5967;SDS011;3010;51.028;4.170;2022-09-03T04:06:10;5.83;;;3.00;;
5967;SDS011;3010;51.028;4.170;2022-09-03T04:08:37;4.47;;;4.17;;
5967;SDS011;3010;51.028;4.170;2022-09-03T04:11:03;3.93;;;3.73;;
5967;SDS011;3010;51.028;4.170;2022-09-03T04:13:30;4.00;;;3.87;;
5967;SDS011;3010;51.028;4.170;2022-09-03T04:16:00;4.13;;;3.73;;
5967;SDS011;3010;51.028;4.170;2022-09-03T04:18:29;3.63;;;3.37;;
5967;SDS011;3010;51.028;4.170;2022-09-03T04:21:02;4.97;;;3.62;;
5967;SDS011;3010;51.028;4.170;2022-09-03T04:23:25;4.00;;;3.47;;
5967;SDS011;3010;51.028;4.170;2022-09-03T04:25:52;3.80;;;3.63;;
5967;SDS011;3010;51.028;4.170;2022-09-03T04:28:18;5.03;;;3.50;;
5967;SDS011;3010;51.028;4.170;2022-09-03T04:30:44;6.57;;;3.80;;
5967;SDS011;3010;51.028;4.170;2022-09-03T04:33:11;5.87;;;4.10;;
5967;SDS011;3010;51.028;4.170;2022-09-03T04:35:38;6.33;;;4.90;;
5967;SDS011;3010;51.028;4.170;2022-09-03T04:38:04;6.27;;;4.33;;
5967;SDS011;3010;51.028;4.170;2022-09-03T04:40:31;5.28;;;4.40;;
5967;SDS011;3010;51.028;4.170;2022-09-03T04:42:58;5.03;;;4.63;;
5967;SDS011;3010;51.028;4.170;2022-09-03T04:45:24;7.95;;;4.87;;
5967;SDS011;3010;51.028;4.170;2022-09-03T04:47:57;6.87;;;5.53;;
5967;SDS011;3010;51.028;4.170;2022-09-03T04:50:23;5.60;;;5.10;;
5967;SDS011;3010;51.028;4.170;2022-09-03T04:52:49;7.53;;;5.50;;
5967;SDS011;3010;51.028;4.170;2022-09-03T04:55:16;5.60;;;5.20;;
5967;SDS011;3010;51.028;4.170;2022-09-03T04:57:43;6.00;;;5.40;;
5967;SDS011;3010;51.028;4.170;2022-09-03T05:00:09;6.10;;;5.50;;
5967;SDS011;3010;51.028;4.170;2022-09-03T05:02:36;5.70;;;5.20;;
5967;SDS011;3010;51.028;4.170;2022-09-03T05:05:03;5.43;;;4.97;;
5967;SDS011;3010;51.028;4.170;2022-09-03T05:07:29;5.60;;;5.07;;
5967;SDS011;3010;51.028;4.170;2022-09-03T05:09:56;4.80;;;4.60;;
5967;SDS011;3010;51.028;4.170;2022-09-03T05:12:22;5.30;;;5.00;;
5967;SDS011;3010;51.028;4.170;2022-09-03T05:14:49;5.63;;;4.73;;
5967;SDS011;3010;51.028;4.170;2022-09-03T05:17:15;5.23;;;4.87;;
5967;SDS011;3010;51.028;4.170;2022-09-03T05:19:42;24.10;;;6.57;;
5967;SDS011;3010;51.028;4.170;2022-09-03T05:22:09;63.90;;;7.20;;
5967;SDS011;3010;51.028;4.170;2022-09-03T05:24:35;25.70;;;6.13;;
5967;SDS011;3010;51.028;4.170;2022-09-03T05:27:02;28.07;;;5.77;;
5967;SDS011;3010;51.028;4.170;2022-09-03T05:29:28;38.87;;;6.70;;
5967;SDS011;3010;51.028;4.170;2022-09-03T05:31:55;58.40;;;8.30;;
5967;SDS011;3010;51.028;4.170;2022-09-03T05:34:22;34.53;;;5.90;;
5967;SDS011;3010;51.028;4.170;2022-09-03T05:36:48;37.63;;;6.23;;
5967;SDS011;3010;51.028;4.170;2022-09-03T05:39:15;69.47;;;9.10;;
5967;SDS011;3010;51.028;4.170;2022-09-03T05:41:41;47.87;;;7.63;;
5967;SDS011;3010;51.028;4.170;2022-09-03T05:44:08;15.80;;;6.13;;
5967;SDS011;3010;51.028;4.170;2022-09-03T05:46:35;40.37;;;6.43;;
5967;SDS011;3010;51.028;4.170;2022-09-03T05:49:02;30.47;;;5.83;;
5967;SDS011;3010;51.028;4.170;2022-09-03T05:51:28;18.33;;;5.50;;
5967;SDS011;3010;51.028;4.170;2022-09-03T05:53:54;13.63;;;5.60;;
5967;SDS011;3010;51.028;4.170;2022-09-03T05:56:22;15.60;;;5.67;;
5967;SDS011;3010;51.028;4.170;2022-09-03T05:58:48;9.27;;;4.77;;
5967;SDS011;3010;51.028;4.170;2022-09-03T06:01:15;14.18;;;5.28;;
5967;SDS011;3010;51.028;4.170;2022-09-03T06:03:41;9.87;;;5.03;;
5967;SDS011;3010;51.028;4.170;2022-09-03T06:06:07;7.80;;;4.67;;
5967;SDS011;3010;51.028;4.170;2022-09-03T06:08:34;8.87;;;5.17;;
5967;SDS011;3010;51.028;4.170;2022-09-03T06:11:00;8.57;;;5.20;;
5967;SDS011;3010;51.028;4.170;2022-09-03T06:13:27;9.55;;;5.40;;
5967;SDS011;3010;51.028;4.170;2022-09-03T06:15:57;10.27;;;5.10;;
5967;SDS011;3010;51.028;4.170;2022-09-03T06:18:23;7.00;;;5.13;;
5967;SDS011;3010;51.028;4.170;2022-09-03T06:20:56;7.83;;;4.70;;
5967;SDS011;3010;51.028;4.170;2022-09-03T06:23:23;6.37;;;4.50;;
5967;SDS011;3010;51.028;4.170;2022-09-03T06:28:35;9.18;;;4.90;;
5967;SDS011;3010;51.028;4.170;2022-09-03T06:31:01;6.70;;;4.87;;
5967;SDS011;3010;51.028;4.170;2022-09-03T06:33:28;6.40;;;5.13;;
5967;SDS011;3010;51.028;4.170;2022-09-03T06:35:54;10.80;;;5.17;;
5967;SDS011;3010;51.028;4.170;2022-09-03T06:38:20;13.20;;;5.40;;
5967;SDS011;3010;51.028;4.170;2022-09-03T06:40:51;31.03;;;6.93;;
5967;SDS011;3010;51.028;4.170;2022-09-03T06:43:19;28.70;;;7.60;;
5967;SDS011;3010;51.028;4.170;2022-09-03T06:45:53;17.30;;;5.90;;
5967;SDS011;3010;51.028;4.170;2022-09-03T06:48:25;10.97;;;6.30;;
5967;SDS011;3010;51.028;4.170;2022-09-03T06:50:57;11.70;;;5.90;;
5967;SDS011;3010;51.028;4.170;2022-09-03T06:53:24;8.60;;;5.70;;
5967;SDS011;3010;51.028;4.170;2022-09-03T06:55:56;13.63;;;5.53;;
5967;SDS011;3010;51.028;4.170;2022-09-03T06:58:22;10.10;;;5.60;;
5967;SDS011;3010;51.028;4.170;2022-09-03T07:00:49;14.67;;;5.40;;
5967;SDS011;3010;51.028;4.170;2022-09-03T07:03:15;11.33;;;5.50;;
5967;SDS011;3010;51.028;4.170;2022-09-03T07:05:42;57.50;;;9.03;;
5967;SDS011;3010;51.028;4.170;2022-09-03T07:08:09;12.33;;;6.20;;
5967;SDS011;3010;51.028;4.170;2022-09-03T07:10:35;6.10;;;5.47;;
5967;SDS011;3010;51.028;4.170;2022-09-03T07:13:02;7.53;;;5.40;;
5967;SDS011;3010;51.028;4.170;2022-09-03T07:15:28;12.50;;;5.90;;
5967;SDS011;3010;51.028;4.170;2022-09-03T07:17:55;13.17;;;6.23;;
5967;SDS011;3010;51.028;4.170;2022-09-03T07:20:21;12.77;;;6.13;;
5967;SDS011;3010;51.028;4.170;2022-09-03T07:22:48;17.53;;;6.60;;
5967;SDS011;3010;51.028;4.170;2022-09-03T07:25:14;11.80;;;6.30;;
5967;SDS011;3010;51.028;4.170;2022-09-03T07:27:41;23.43;;;7.00;;
5967;SDS011;3010;51.028;4.170;2022-09-03T07:30:08;16.40;;;6.60;;
5967;SDS011;3010;51.028;4.170;2022-09-03T07:32:35;22.53;;;6.93;;
5967;SDS011;3010;51.028;4.170;2022-09-03T07:35:01;12.33;;;6.70;;
5967;SDS011;3010;51.028;4.170;2022-09-03T07:37:28;8.43;;;6.40;;
5967;SDS011;3010;51.028;4.170;2022-09-03T07:39:54;23.60;;;7.40;;
5967;SDS011;3010;51.028;4.170;2022-09-03T07:42:21;10.60;;;7.33;;
5967;SDS011;3010;51.028;4.170;2022-09-03T07:44:47;27.40;;;7.87;;
5967;SDS011;3010;51.028;4.170;2022-09-03T07:47:14;13.73;;;6.60;;
5967;SDS011;3010;51.028;4.170;2022-09-03T07:49:41;7.57;;;6.83;;
5967;SDS011;3010;51.028;4.170;2022-09-03T07:52:07;10.13;;;6.65;;
5967;SDS011;3010;51.028;4.170;2022-09-03T07:54:34;73.60;;;12.40;;
5967;SDS011;3010;51.028;4.170;2022-09-03T07:57:00;32.53;;;8.80;;
5967;SDS011;3010;51.028;4.170;2022-09-03T07:59:27;23.57;;;7.27;;
5967;SDS011;3010;51.028;4.170;2022-09-03T08:01:54;11.83;;;6.67;;
5967;SDS011;3010;51.028;4.170;2022-09-03T08:04:20;7.87;;;6.47;;
5967;SDS011;3010;51.028;4.170;2022-09-03T08:06:47;11.97;;;6.60;;
5967;SDS011;3010;51.028;4.170;2022-09-03T08:09:13;8.87;;;5.90;;
5967;SDS011;3010;51.028;4.170;2022-09-03T08:11:41;8.02;;;6.30;;
5967;SDS011;3010;51.028;4.170;2022-09-03T08:14:07;6.50;;;5.83;;
5967;SDS011;3010;51.028;4.170;2022-09-03T08:16:35;6.47;;;5.97;;
5967;SDS011;3010;51.028;4.170;2022-09-03T08:19:00;7.15;;;6.12;;
5967;SDS011;3010;51.028;4.170;2022-09-03T08:21:26;6.80;;;6.27;;
5967;SDS011;3010;51.028;4.170;2022-09-03T08:23:54;6.77;;;5.97;;
5967;SDS011;3010;51.028;4.170;2022-09-03T08:26:20;7.00;;;6.30;;
5967;SDS011;3010;51.028;4.170;2022-09-03T08:28:46;7.60;;;6.70;;
5967;SDS011;3010;51.028;4.170;2022-09-03T08:31:14;6.97;;;6.27;;
5967;SDS011;3010;51.028;4.170;2022-09-03T08:33:40;9.85;;;6.32;;
5967;SDS011;3010;51.028;4.170;2022-09-03T08:36:07;10.13;;;7.03;;
5967;SDS011;3010;51.028;4.170;2022-09-03T08:38:33;8.07;;;6.70;;
5967;SDS011;3010;51.028;4.170;2022-09-03T08:41:09;38.03;;;7.70;;
5967;SDS011;3010;51.028;4.170;2022-09-03T08:43:38;7.05;;;6.47;;
5967;SDS011;3010;51.028;4.170;2022-09-03T08:46:01;6.57;;;5.97;;
5967;SDS011;3010;51.028;4.170;2022-09-03T08:48:28;11.23;;;7.00;;
5967;SDS011;3010;51.028;4.170;2022-09-03T08:50:55;15.23;;;7.10;;
5967;SDS011;3010;51.028;4.170;2022-09-03T08:53:22;6.83;;;6.20;;
5967;SDS011;3010;51.028;4.170;2022-09-03T08:58:17;16.63;;;6.87;;
5967;SDS011;3010;51.028;4.170;2022-09-03T09:00:48;14.97;;;6.67;;
5967;SDS011;3010;51.028;4.170;2022-09-03T09:03:28;16.03;;;7.70;;
5967;SDS011;3010;51.028;4.170;2022-09-03T09:11:41;41.90;;;8.93;;
5967;SDS011;3010;51.028;4.170;2022-09-03T09:20:09;10.67;;;6.27;;
5967;SDS011;3010;51.028;4.170;2022-09-03T09:22:42;6.40;;;4.90;;
5967;SDS011;3010;51.028;4.170;2022-09-03T09:25:09;4.17;;;3.97;;
5967;SDS011;3010;51.028;4.170;2022-09-03T09:27:34;7.53;;;4.60;;
5967;SDS011;3010;51.028;4.170;2022-09-03T09:30:00;5.83;;;5.33;;
5967;SDS011;3010;51.028;4.170;2022-09-03T09:32:27;5.97;;;5.43;;
5967;SDS011;3010;51.028;4.170;2022-09-03T09:34:53;5.95;;;5.45;;
5967;SDS011;3010;51.028;4.170;2022-09-03T09:37:20;5.23;;;4.83;;
5967;SDS011;3010;51.028;4.170;2022-09-03T09:39:54;5.00;;;4.80;;
5967;SDS011;3010;51.028;4.170;2022-09-03T09:42:20;5.50;;;5.10;;
5967;SDS011;3010;51.028;4.170;2022-09-03T09:44:46;5.60;;;5.17;;
5967;SDS011;3010;51.028;4.170;2022-09-03T09:47:20;9.27;;;5.53;;
5967;SDS011;3010;51.028;4.170;2022-09-03T09:52:14;5.67;;;5.37;;
5967;SDS011;3010;51.028;4.170;2022-09-03T09:54:41;5.40;;;5.10;;
5967;SDS011;3010;51.028;4.170;2022-09-03T09:57:13;4.80;;;4.50;;
5967;SDS011;3010;51.028;4.170;2022-09-03T09:59:34;4.63;;;4.13;;
5967;SDS011;3010;51.028;4.170;2022-09-03T10:04:30;21.43;;;5.33;;
5967;SDS011;3010;51.028;4.170;2022-09-03T10:07:52;5.30;;;4.17;;
5967;SDS011;3010;51.028;4.170;2022-09-03T10:09:24;10.37;;;4.10;;
5967;SDS011;3010;51.028;4.170;2022-09-03T10:15:24;3.70;;;3.60;;
5967;SDS011;3010;51.028;4.170;2022-09-03T10:17:24;4.50;;;4.10;;
5967;SDS011;3010;51.028;4.170;2022-09-03T10:19:55;3.77;;;3.67;;
5967;SDS011;3010;51.028;4.170;2022-09-03T10:22:55;3.93;;;3.70;;
5967;SDS011;3010;51.028;4.170;2022-09-03T10:25:19;4.23;;;3.90;;
5967;SDS011;3010;51.028;4.170;2022-09-03T10:27:45;4.47;;;3.97;;
5967;SDS011;3010;51.028;4.170;2022-09-03T10:30:13;4.40;;;4.10;;
5967;SDS011;3010;51.028;4.170;2022-09-03T10:35:28;4.60;;;4.30;;
5967;SDS011;3010;51.028;4.170;2022-09-03T10:38:07;4.83;;;4.57;;
5967;SDS011;3010;51.028;4.170;2022-09-03T10:40:40;4.90;;;4.43;;
5967;SDS011;3010;51.028;4.170;2022-09-03T10:46:15;6.07;;;5.63;;
5967;SDS011;3010;51.028;4.170;2022-09-03T10:51:14;4.97;;;4.77;;
5967;SDS011;3010;51.028;4.170;2022-09-03T10:58:58;5.30;;;4.87;;
5967;SDS011;3010;51.028;4.170;2022-09-03T11:04:42;5.13;;;4.80;;
5967;SDS011;3010;51.028;4.170;2022-09-03T11:07:16;4.97;;;4.70;;
5967;SDS011;3010;51.028;4.170;2022-09-03T11:12:37;6.90;;;5.00;;
5967;SDS011;3010;51.028;4.170;2022-09-03T11:15:01;5.13;;;4.70;;
5967;SDS011;3010;51.028;4.170;2022-09-03T11:17:35;4.70;;;4.32;;
5967;SDS011;3010;51.028;4.170;2022-09-03T11:20:07;5.33;;;4.93;;
5967;SDS011;3010;51.028;4.170;2022-09-03T11:22:31;7.50;;;6.50;;
5967;SDS011;3010;51.028;4.170;2022-09-03T11:24:58;5.63;;;5.40;;
5967;SDS011;3010;51.028;4.170;2022-09-03T11:30:10;8.33;;;5.70;;
5967;SDS011;3010;51.028;4.170;2022-09-03T11:35:12;7.20;;;5.70;;
5967;SDS011;3010;51.028;4.170;2022-09-03T11:37:44;6.40;;;6.00;;
5967;SDS011;3010;51.028;4.170;2022-09-03T11:40:06;6.18;;;5.70;;
5967;SDS011;3010;51.028;4.170;2022-09-03T11:42:41;6.10;;;5.60;;
5967;SDS011;3010;51.028;4.170;2022-09-03T11:45:19;5.70;;;5.20;;
5967;SDS011;3010;51.028;4.170;2022-09-03T11:47:40;6.43;;;4.78;;
5967;SDS011;3010;51.028;4.170;2022-09-03T11:50:07;5.53;;;5.23;;
5967;SDS011;3010;51.028;4.170;2022-09-03T11:52:32;4.93;;;4.67;;
5967;SDS011;3010;51.028;4.170;2022-09-03T11:54:59;6.32;;;4.60;;
5967;SDS011;3010;51.028;4.170;2022-09-03T11:57:29;5.93;;;5.50;;
5967;SDS011;3010;51.028;4.170;2022-09-03T12:00:12;4.97;;;4.67;;
5967;SDS011;3010;51.028;4.170;2022-09-03T12:02:41;5.27;;;5.07;;
5967;SDS011;3010;51.028;4.170;2022-09-03T12:07:53;4.45;;;4.25;;
5967;SDS011;3010;51.028;4.170;2022-09-03T12:10:34;5.43;;;4.93;;
5967;SDS011;3010;51.028;4.170;2022-09-03T12:16:05;5.63;;;5.23;;
5967;SDS011;3010;51.028;4.170;2022-09-03T12:18:33;5.00;;;4.70;;
5967;SDS011;3010;51.028;4.170;2022-09-03T12:21:03;4.65;;;4.30;;
5967;SDS011;3010;51.028;4.170;2022-09-03T12:23:29;4.07;;;3.77;;
5967;SDS011;3010;51.028;4.170;2022-09-03T12:25:56;4.50;;;4.17;;
5967;SDS011;3010;51.028;4.170;2022-09-03T12:28:22;4.47;;;4.27;;
5967;SDS011;3010;51.028;4.170;2022-09-03T12:30:48;4.17;;;3.97;;
5967;SDS011;3010;51.028;4.170;2022-09-03T12:33:16;4.43;;;4.13;;
5967;SDS011;3010;51.028;4.170;2022-09-03T12:35:41;4.97;;;4.47;;
5967;SDS011;3010;51.028;4.170;2022-09-03T12:38:08;3.80;;;3.60;;
5967;SDS011;3010;51.028;4.170;2022-09-03T12:40:39;3.50;;;3.40;;
5967;SDS011;3010;51.028;4.170;2022-09-03T12:43:13;4.50;;;4.30;;
5967;SDS011;3010;51.028;4.170;2022-09-03T12:45:43;4.27;;;3.97;;
5967;SDS011;3010;51.028;4.170;2022-09-03T12:48:12;3.83;;;3.60;;
5967;SDS011;3010;51.028;4.170;2022-09-03T12:50:45;8.07;;;3.07;;
5967;SDS011;3010;51.028;4.170;2022-09-03T12:53:21;3.47;;;3.27;;
5967;SDS011;3010;51.028;4.170;2022-09-03T12:55:44;3.33;;;3.20;;
5967;SDS011;3010;51.028;4.170;2022-09-03T12:58:18;3.47;;;3.35;;
5967;SDS011;3010;51.028;4.170;2022-09-03T13:00:57;11.53;;;4.53;;
5967;SDS011;3010;51.028;4.170;2022-09-03T13:06:17;4.40;;;4.20;;
5967;SDS011;3010;51.028;4.170;2022-09-03T13:08:46;3.80;;;3.70;;
5967;SDS011;3010;51.028;4.170;2022-09-03T13:11:14;3.53;;;3.43;;
5967;SDS011;3010;51.028;4.170;2022-09-03T13:13:38;3.93;;;3.73;;
5967;SDS011;3010;51.028;4.170;2022-09-03T13:26:28;3.60;;;3.50;;
5967;SDS011;3010;51.028;4.170;2022-09-03T13:28:55;4.13;;;3.93;;
5967;SDS011;3010;51.028;4.170;2022-09-03T13:31:36;4.77;;;4.37;;
5967;SDS011;3010;51.028;4.170;2022-09-03T13:34:05;4.23;;;4.10;;
5967;SDS011;3010;51.028;4.170;2022-09-03T13:36:29;4.20;;;3.90;;
5967;SDS011;3010;51.028;4.170;2022-09-03T13:38:58;4.25;;;4.05;;
5967;SDS011;3010;51.028;4.170;2022-09-03T13:41:29;3.90;;;3.80;;
5967;SDS011;3010;51.028;4.170;2022-09-03T13:44:31;3.97;;;3.60;;
5967;SDS011;3010;51.028;4.170;2022-09-03T13:49:21;3.10;;;3.00;;
5967;SDS011;3010;51.028;4.170;2022-09-03T13:52:26;3.57;;;3.37;;
5967;SDS011;3010;51.028;4.170;2022-09-03T13:55:09;3.13;;;2.80;;
5967;SDS011;3010;51.028;4.170;2022-09-03T14:00:05;2.90;;;2.80;;
5967;SDS011;3010;51.028;4.170;2022-09-03T14:02:48;3.23;;;2.97;;
5967;SDS011;3010;51.028;4.170;2022-09-03T14:05:14;3.83;;;3.17;;
5967;SDS011;3010;51.028;4.170;2022-09-03T14:07:43;3.60;;;3.40;;
5967;SDS011;3010;51.028;4.170;2022-09-03T14:12:43;2.80;;;2.60;;
5967;SDS011;3010;51.028;4.170;2022-09-03T14:15:26;2.70;;;2.60;;
5967;SDS011;3010;51.028;4.170;2022-09-03T14:17:51;2.40;;;2.30;;
5967;SDS011;3010;51.028;4.170;2022-09-03T14:25:17;2.80;;;2.70;;
5967;SDS011;3010;51.028;4.170;2022-09-03T14:27:46;2.63;;;2.53;;
5967;SDS011;3010;51.028;4.170;2022-09-03T14:32:45;2.80;;;2.60;;
5967;SDS011;3010;51.028;4.170;2022-09-03T14:40:28;3.13;;;2.73;;
5967;SDS011;3010;51.028;4.170;2022-09-03T14:48:47;2.73;;;2.63;;
5967;SDS011;3010;51.028;4.170;2022-09-03T14:54:22;3.00;;;2.87;;
5967;SDS011;3010;51.028;4.170;2022-09-03T14:56:58;2.73;;;2.63;;
5967;SDS011;3010;51.028;4.170;2022-09-03T14:59:33;2.80;;;2.60;;
5967;SDS011;3010;51.028;4.170;2022-09-03T15:04:44;2.80;;;2.70;;
5967;SDS011;3010;51.028;4.170;2022-09-03T15:12:41;3.13;;;2.93;;
5967;SDS011;3010;51.028;4.170;2022-09-03T15:15:11;2.77;;;2.67;;
5967;SDS011;3010;51.028;4.170;2022-09-03T15:17:40;3.23;;;2.60;;
5967;SDS011;3010;51.028;4.170;2022-09-03T15:20:22;3.10;;;2.80;;
5967;SDS011;3010;51.028;4.170;2022-09-03T15:28:18;3.20;;;3.10;;
5967;SDS011;3010;51.028;4.170;2022-09-03T15:30:54;3.23;;;3.03;;
5967;SDS011;3010;51.028;4.170;2022-09-03T15:36:02;3.37;;;2.70;;
5967;SDS011;3010;51.028;4.170;2022-09-03T15:38:38;6.90;;;3.07;;
5967;SDS011;3010;51.028;4.170;2022-09-03T15:41:09;2.63;;;2.50;;
5967;SDS011;3010;51.028;4.170;2022-09-03T15:43:36;3.00;;;2.70;;
5967;SDS011;3010;51.028;4.170;2022-09-03T15:46:08;3.13;;;2.57;;
5967;SDS011;3010;51.028;4.170;2022-09-03T15:51:19;2.27;;;2.07;;
5967;SDS011;3010;51.028;4.170;2022-09-03T15:53:51;2.37;;;2.27;;
5967;SDS011;3010;51.028;4.170;2022-09-03T15:56:23;3.23;;;2.47;;
5967;SDS011;3010;51.028;4.170;2022-09-03T16:01:46;3.30;;;2.97;;
5967;SDS011;3010;51.028;4.170;2022-09-03T16:04:18;3.40;;;3.13;;
5967;SDS011;3010;51.028;4.170;2022-09-03T16:06:53;3.00;;;2.90;;
5967;SDS011;3010;51.028;4.170;2022-09-03T16:11:55;2.77;;;2.67;;
5967;SDS011;3010;51.028;4.170;2022-09-03T16:19:29;2.90;;;2.80;;
5967;SDS011;3010;51.028;4.170;2022-09-03T16:21:57;3.03;;;2.80;;
5967;SDS011;3010;51.028;4.170;2022-09-03T16:24:24;2.57;;;2.47;;
5967;SDS011;3010;51.028;4.170;2022-09-03T16:29:26;2.40;;;2.40;;
5967;SDS011;3010;51.028;4.170;2022-09-03T16:35:05;2.03;;;2.00;;
5967;SDS011;3010;51.028;4.170;2022-09-03T16:37:35;2.27;;;2.20;;
5967;SDS011;3010;51.028;4.170;2022-09-03T16:40:39;2.03;;;1.93;;
5967;SDS011;3010;51.028;4.170;2022-09-03T16:48:58;1.90;;;1.80;;
5967;SDS011;3010;51.028;4.170;2022-09-03T16:51:43;2.50;;;2.20;;
5967;SDS011;3010;51.028;4.170;2022-09-03T16:54:11;2.33;;;2.20;;
5967;SDS011;3010;51.028;4.170;2022-09-03T16:56:37;2.47;;;2.33;;
5967;SDS011;3010;51.028;4.170;2022-09-03T17:04:33;2.10;;;2.10;;
5967;SDS011;3010;51.028;4.170;2022-09-03T17:15:33;2.60;;;2.50;;
5967;SDS011;3010;51.028;4.170;2022-09-03T17:18:18;3.50;;;2.57;;
5967;SDS011;3010;51.028;4.170;2022-09-03T17:20:56;3.00;;;2.80;;
5967;SDS011;3010;51.028;4.170;2022-09-03T17:26:01;2.90;;;2.80;;
5967;SDS011;3010;51.028;4.170;2022-09-03T17:28:31;3.57;;;2.87;;
5967;SDS011;3010;51.028;4.170;2022-09-03T17:36:54;3.23;;;3.07;;
5967;SDS011;3010;51.028;4.170;2022-09-03T17:39:28;3.27;;;3.00;;
5967;SDS011;3010;51.028;4.170;2022-09-03T17:42:03;3.83;;;3.10;;
5967;SDS011;3010;51.028;4.170;2022-09-03T17:49:31;3.80;;;3.60;;
5967;SDS011;3010;51.028;4.170;2022-09-03T17:52:02;3.27;;;3.13;;
5967;SDS011;3010;51.028;4.170;2022-09-03T17:57:01;3.17;;;2.97;;
5967;SDS011;3010;51.028;4.170;2022-09-03T17:59:43;3.80;;;3.60;;
5967;SDS011;3010;51.028;4.170;2022-09-03T18:04:45;4.40;;;4.03;;
5967;SDS011;3010;51.028;4.170;2022-09-03T18:10:17;3.47;;;3.27;;
5967;SDS011;3010;51.028;4.170;2022-09-03T18:12:50;3.20;;;3.00;;
5967;SDS011;3010;51.028;4.170;2022-09-03T18:15:21;8.97;;;3.00;;
5967;SDS011;3010;51.028;4.170;2022-09-03T18:18:04;2.90;;;2.80;;
5967;SDS011;3010;51.028;4.170;2022-09-03T18:20:42;3.20;;;2.90;;
5967;SDS011;3010;51.028;4.170;2022-09-03T18:23:29;2.87;;;2.70;;
5967;SDS011;3010;51.028;4.170;2022-09-03T18:26:23;3.57;;;3.07;;
5967;SDS011;3010;51.028;4.170;2022-09-03T18:29:07;2.90;;;2.80;;
5967;SDS011;3010;51.028;4.170;2022-09-03T18:31:51;3.27;;;3.07;;
5967;SDS011;3010;51.028;4.170;2022-09-03T18:34:36;3.40;;;3.20;;
5967;SDS011;3010;51.028;4.170;2022-09-03T18:37:22;6.03;;;3.43;;
5967;SDS011;3010;51.028;4.170;2022-09-03T18:40:07;4.63;;;3.57;;
5967;SDS011;3010;51.028;4.170;2022-09-03T18:45:54;3.80;;;3.30;;
5967;SDS011;3010;51.028;4.170;2022-09-03T18:51:45;5.03;;;4.10;;
5967;SDS011;3010;51.028;4.170;2022-09-03T18:54:26;4.60;;;4.13;;
5967;SDS011;3010;51.028;4.170;2022-09-03T18:57:13;5.70;;;4.00;;
5967;SDS011;3010;51.028;4.170;2022-09-03T19:00:05;5.47;;;3.83;;
5967;SDS011;3010;51.028;4.170;2022-09-03T19:09:06;4.30;;;4.00;;
5967;SDS011;3010;51.028;4.170;2022-09-03T19:11:56;4.60;;;4.22;;
5967;SDS011;3010;51.028;4.170;2022-09-03T19:15:04;5.77;;;4.13;;
5967;SDS011;3010;51.028;4.170;2022-09-03T19:20:37;4.33;;;3.97;;
5967;SDS011;3010;51.028;4.170;2022-09-03T19:23:21;7.90;;;4.20;;